createdAt,value
2016-11-26T00:00:19.607Z,22.18
2016-11-26T00:00:47.491Z,22.13
2016-11-26T00:01:15.550Z,21.98
2016-11-26T00:01:43.538Z,22.04
2016-11-26T00:02:12.018Z,22.04
2016-11-26T00:02:39.794Z,22.06
2016-11-26T00:03:07.659Z,22.11
2016-11-26T00:03:35.631Z,22.1
2016-11-26T00:04:03.413Z,22.08
2016-11-26T00:04:31.155Z,22.06
2016-11-26T00:04:59.012Z,22.14
2016-11-26T00:05:26.837Z,22.17
2016-11-26T00:05:54.593Z,22.11
2016-11-26T00:06:22.537Z,22.07
2016-11-26T00:06:51.137Z,22.17
2016-11-26T00:07:18.893Z,22.2
2016-11-26T00:07:47.581Z,22.14
2016-11-26T00:08:15.318Z,22.18
2016-11-26T00:08:43.042Z,22.22
2016-11-26T00:09:10.787Z,22.28
2016-11-26T00:09:38.774Z,22.15
2016-11-26T00:10:06.534Z,22.14
2016-11-26T00:10:34.379Z,22.23
2016-11-26T00:11:02.218Z,22.25
2016-11-26T00:11:30.089Z,22.25
2016-11-26T00:11:57.869Z,22.29
2016-11-26T00:12:25.749Z,22.3
2016-11-26T00:12:53.674Z,22.44
2016-11-26T00:13:21.448Z,22.44
2016-11-26T00:13:49.223Z,22.5
2016-11-26T00:14:17.012Z,22.5
2016-11-26T00:14:44.972Z,22.48
2016-11-26T00:15:12.784Z,22.45
2016-11-26T00:15:40.641Z,22.57
2016-11-26T00:16:08.443Z,22.41
2016-11-26T00:16:36.287Z,22.28
2016-11-26T00:17:04.078Z,22.35
2016-11-26T00:17:31.905Z,22.3
2016-11-26T00:17:59.642Z,22.28
2016-11-26T00:18:27.488Z,22.29
2016-11-26T00:18:55.237Z,22.35
2016-11-26T00:19:23.004Z,22.26
2016-11-26T00:19:50.797Z,22.33
2016-11-26T00:20:18.737Z,22.3
2016-11-26T00:20:46.594Z,22.29
2016-11-26T00:21:14.530Z,22.33
2016-11-26T00:21:42.523Z,22.38
2016-11-26T00:22:10.448Z,22.43
2016-11-26T00:22:38.233Z,22.41
2016-11-26T00:23:06.014Z,22.41
2016-11-26T00:23:33.995Z,22.25
2016-11-26T00:24:01.763Z,22.22
2016-11-26T00:24:29.510Z,22.04
2016-11-26T00:24:57.269Z,21.99
2016-11-26T00:25:25.101Z,21.93
2016-11-26T00:25:52.884Z,22
2016-11-26T00:26:20.722Z,22.02
2016-11-26T00:26:48.591Z,22.06
2016-11-26T00:27:16.479Z,22.07
2016-11-26T00:27:44.223Z,22.07
2016-11-26T00:28:12.035Z,22.07
2016-11-26T00:28:39.815Z,22.08
2016-11-26T00:29:07.577Z,21.92
2016-11-26T00:29:35.364Z,22.02
2016-11-26T00:30:03.194Z,22.08
2016-11-26T00:30:30.922Z,22.07
2016-11-26T00:30:58.756Z,22.11
2016-11-26T00:31:26.509Z,22.15
2016-11-26T00:31:54.507Z,22.15
2016-11-26T00:32:22.288Z,22.2
2016-11-26T00:32:50.047Z,22.25
2016-11-26T00:33:17.824Z,22.2
2016-11-26T00:33:45.612Z,22.29
2016-11-26T00:34:13.464Z,22.25
2016-11-26T00:34:41.270Z,22.23
2016-11-26T00:35:09.209Z,22.17
2016-11-26T00:35:37.140Z,22.28
2016-11-26T00:36:05.011Z,22.22
2016-11-26T00:36:32.879Z,22.08
2016-11-26T00:37:00.808Z,21.98
2016-11-26T00:37:28.694Z,21.99
2016-11-26T00:37:56.649Z,22
2016-11-26T00:38:24.428Z,21.99
2016-11-26T00:38:52.271Z,21.93
2016-11-26T00:39:20.185Z,21.95
2016-11-26T00:39:48.014Z,21.95
2016-11-26T00:40:15.782Z,21.88
2016-11-26T00:40:43.588Z,21.76
2016-11-26T00:41:11.408Z,21.64
2016-11-26T00:41:39.251Z,21.72
2016-11-26T00:42:07.119Z,21.67
2016-11-26T00:42:34.903Z,21.76
2016-11-26T00:43:02.663Z,21.83
2016-11-26T00:43:30.498Z,21.83
2016-11-26T00:43:58.269Z,21.79
2016-11-26T00:44:26.047Z,21.91
2016-11-26T00:44:53.800Z,21.83
2016-11-26T00:45:21.570Z,21.82
2016-11-26T00:45:49.311Z,21.88
2016-11-26T00:46:17.164Z,21.79
2016-11-26T00:46:45.018Z,21.83
2016-11-26T00:47:24.556Z,21.82
2016-11-26T00:47:52.377Z,21.73
2016-11-26T00:48:20.157Z,21.67
2016-11-26T00:48:48.002Z,21.66
2016-11-26T00:49:15.759Z,21.57
2016-11-26T00:49:43.531Z,21.57
2016-11-26T00:50:11.397Z,21.6
2016-11-26T00:50:39.165Z,21.64
2016-11-26T00:51:06.934Z,21.7
2016-11-26T00:51:34.775Z,21.67
2016-11-26T00:52:02.514Z,21.64
2016-11-26T00:52:34.842Z,21.72
2016-11-26T00:53:02.792Z,21.83
2016-11-26T00:53:30.591Z,21.72
2016-11-26T00:53:58.434Z,21.79
2016-11-26T00:54:26.195Z,21.88
2016-11-26T00:54:53.960Z,21.75
2016-11-26T00:55:21.821Z,21.77
2016-11-26T00:55:49.748Z,21.8
2016-11-26T00:56:17.572Z,21.77
2016-11-26T00:56:45.343Z,21.77
2016-11-26T00:57:13.245Z,21.75
2016-11-26T00:57:41.042Z,21.77
2016-11-26T00:58:08.821Z,21.76
2016-11-26T00:58:36.733Z,21.75
2016-11-26T00:59:04.584Z,21.82
2016-11-26T00:59:32.345Z,21.83
2016-11-26T01:00:00.232Z,21.95
2016-11-26T01:00:27.964Z,21.88
2016-11-26T01:00:55.781Z,21.91
2016-11-26T01:01:23.629Z,21.93
2016-11-26T01:01:51.434Z,21.96
2016-11-26T01:02:23.445Z,22.02
2016-11-26T01:02:51.222Z,22.02
2016-11-26T01:03:18.979Z,22
2016-11-26T01:03:46.735Z,22.1
2016-11-26T01:04:14.631Z,22.07
2016-11-26T01:04:42.530Z,22.07
2016-11-26T01:05:10.341Z,22.1
2016-11-26T01:05:38.105Z,22.04
2016-11-26T01:06:05.996Z,22.07
2016-11-26T01:06:33.876Z,22.04
2016-11-26T01:07:01.651Z,22.04
2016-11-26T01:07:33.585Z,22
2016-11-26T01:08:01.446Z,22.08
2016-11-26T01:08:29.273Z,22.13
2016-11-26T01:08:57.124Z,22.14
2016-11-26T01:09:24.926Z,22.15
2016-11-26T01:09:52.846Z,22.22
2016-11-26T01:10:20.629Z,22.08
2016-11-26T01:10:48.390Z,21.99
2016-11-26T01:11:16.184Z,22.13
2016-11-26T01:11:43.973Z,22.13
2016-11-26T01:12:11.828Z,22.11
2016-11-26T01:12:43.522Z,22.14
2016-11-26T01:13:11.252Z,22.22
2016-11-26T01:13:39.116Z,22.11
2016-11-26T01:14:07.088Z,21.99
2016-11-26T01:14:35.034Z,22
2016-11-26T01:15:02.831Z,21.95
2016-11-26T01:15:30.601Z,22.08
2016-11-26T01:15:58.450Z,22.02
2016-11-26T01:16:26.180Z,22.08
2016-11-26T01:16:53.959Z,22.02
2016-11-26T01:17:21.692Z,21.95
2016-11-26T01:17:49.600Z,21.99
2016-11-26T01:18:17.363Z,21.93
2016-11-26T01:18:45.137Z,21.92
2016-11-26T01:19:12.970Z,21.89
2016-11-26T01:19:40.817Z,21.95
2016-11-26T01:20:08.701Z,22
2016-11-26T01:20:36.553Z,22
2016-11-26T01:21:04.335Z,22.08
2016-11-26T01:21:32.178Z,22
2016-11-26T01:21:59.923Z,22.06
2016-11-26T01:22:27.981Z,22.06
2016-11-26T01:22:55.989Z,21.98
2016-11-26T01:23:23.837Z,22.13
2016-11-26T01:23:51.613Z,22
2016-11-26T01:24:19.444Z,22.1
2016-11-26T01:24:47.313Z,22.07
2016-11-26T01:25:15.105Z,22.1
2016-11-26T01:25:42.989Z,22.15
2016-11-26T01:26:10.758Z,22.17
2016-11-26T01:26:38.594Z,22.18
2016-11-26T01:27:06.429Z,22.07
2016-11-26T01:27:34.283Z,22.11
2016-11-26T01:28:02.061Z,22.14
2016-11-26T01:28:29.843Z,22.2
2016-11-26T01:28:57.686Z,22.14
2016-11-26T01:29:25.452Z,22.14
2016-11-26T01:29:53.303Z,22.15
2016-11-26T01:30:21.103Z,22.18
2016-11-26T01:30:48.898Z,22.11
2016-11-26T01:31:16.752Z,22.25
2016-11-26T01:31:44.480Z,22.23
2016-11-26T01:32:12.248Z,22.22
2016-11-26T01:32:44.025Z,22.17
2016-11-26T01:33:11.780Z,22.29
2016-11-26T01:33:39.549Z,22.17
2016-11-26T01:34:07.268Z,22.22
2016-11-26T01:34:35.079Z,22.1
2016-11-26T01:35:02.847Z,22.07
2016-11-26T01:35:30.763Z,22.15
2016-11-26T01:35:58.587Z,22.15
2016-11-26T01:36:26.347Z,22.18
2016-11-26T01:36:54.175Z,22.17
2016-11-26T01:37:21.994Z,22.2
2016-11-26T01:37:49.863Z,22.25
2016-11-26T01:38:17.727Z,22.26
2016-11-26T01:38:45.489Z,22.23
2016-11-26T01:39:13.335Z,22.23
2016-11-26T01:39:41.093Z,22.22
2016-11-26T01:40:08.881Z,22.15
2016-11-26T01:40:36.664Z,22.2
2016-11-26T01:41:04.450Z,22.2
2016-11-26T01:41:32.328Z,22.17
2016-11-26T01:42:00.090Z,22.2
2016-11-26T01:42:27.973Z,22.15
2016-11-26T01:42:59.646Z,22.2
2016-11-26T01:43:27.452Z,22.23
2016-11-26T01:43:55.374Z,22.22
2016-11-26T01:44:23.159Z,22.22
2016-11-26T01:44:50.934Z,22.23
2016-11-26T01:45:18.807Z,22.28
2016-11-26T01:45:46.593Z,22.26
2016-11-26T01:46:14.456Z,22.35
2016-11-26T01:46:42.265Z,22.3
2016-11-26T01:47:10.037Z,22.35
2016-11-26T01:47:37.798Z,22.26
2016-11-26T01:48:09.571Z,22.28
2016-11-26T01:48:37.357Z,22.35
2016-11-26T01:49:05.088Z,22.32
2016-11-26T01:49:32.897Z,22.29
2016-11-26T01:50:00.690Z,22.3
2016-11-26T01:50:28.482Z,22.28
2016-11-26T01:50:56.270Z,22.23
2016-11-26T01:51:24.067Z,22.15
2016-11-26T01:51:51.915Z,22.28
2016-11-26T01:52:19.655Z,22.26
2016-11-26T01:52:47.412Z,22.32
2016-11-26T01:53:23.378Z,22.2
2016-11-26T01:53:51.137Z,22.28
2016-11-26T01:54:19.069Z,22.2
2016-11-26T01:54:46.852Z,22.22
2016-11-26T01:55:14.591Z,22.25
2016-11-26T01:55:42.432Z,22.33
2016-11-26T01:56:10.193Z,22.3
2016-11-26T01:56:37.982Z,22.22
2016-11-26T01:57:05.813Z,22.26
2016-11-26T01:57:33.644Z,22.18
2016-11-26T01:58:01.573Z,22.22
2016-11-26T01:58:29.363Z,22.22
2016-11-26T01:58:57.143Z,22.25
2016-11-26T01:59:24.936Z,22.28
2016-11-26T01:59:52.786Z,22.25
2016-11-26T02:00:20.521Z,22.28
2016-11-26T02:00:48.287Z,22.25
2016-11-26T02:01:16.042Z,22.3
2016-11-26T02:01:43.865Z,22.25
2016-11-26T02:02:11.646Z,22.28
2016-11-26T02:02:39.493Z,22.32
2016-11-26T02:03:15.650Z,22.36
2016-11-26T02:03:43.501Z,22.33
2016-11-26T02:04:11.419Z,22.39
2016-11-26T02:04:39.267Z,22.3
2016-11-26T02:05:07.025Z,22.33
2016-11-26T02:05:34.870Z,22.35
2016-11-26T02:06:02.732Z,22.39
2016-11-26T02:06:30.560Z,22.38
2016-11-26T02:06:58.333Z,22.38
2016-11-26T02:07:26.151Z,22.44
2016-11-26T02:07:53.961Z,22.36
2016-11-26T02:08:21.794Z,22.43
2016-11-26T02:08:49.606Z,22.45
2016-11-26T02:09:17.446Z,22.53
2016-11-26T02:09:45.291Z,22.5
2016-11-26T02:10:13.086Z,22.48
2016-11-26T02:10:40.959Z,22.51
2016-11-26T02:11:08.754Z,22.51
2016-11-26T02:11:36.640Z,22.53
2016-11-26T02:12:04.432Z,22.48
2016-11-26T02:12:32.228Z,22.5
2016-11-26T02:13:00.006Z,22.51
2016-11-26T02:13:27.786Z,22.48
2016-11-26T02:13:55.602Z,22.36
2016-11-26T02:14:23.382Z,22.38
2016-11-26T02:14:51.147Z,22.35
2016-11-26T02:15:18.944Z,22.38
2016-11-26T02:15:46.779Z,22.39
2016-11-26T02:16:14.606Z,22.48
2016-11-26T02:16:42.411Z,22.38
2016-11-26T02:17:10.315Z,22.41
2016-11-26T02:17:38.144Z,22.41
2016-11-26T02:18:05.896Z,22.43
2016-11-26T02:18:33.847Z,22.5
2016-11-26T02:19:01.637Z,22.45
2016-11-26T02:19:29.422Z,22.51
2016-11-26T02:19:57.231Z,22.48
2016-11-26T02:20:24.990Z,22.48
2016-11-26T02:20:52.766Z,22.53
2016-11-26T02:21:20.628Z,22.48
2016-11-26T02:21:48.443Z,22.47
2016-11-26T02:22:16.227Z,22.48
2016-11-26T02:22:44.087Z,22.47
2016-11-26T02:23:11.868Z,22.53
2016-11-26T02:23:39.817Z,22.45
2016-11-26T02:24:07.662Z,22.47
2016-11-26T02:24:35.596Z,22.48
2016-11-26T02:25:03.332Z,22.48
2016-11-26T02:25:31.093Z,22.43
2016-11-26T02:25:58.960Z,22.44
2016-11-26T02:26:26.730Z,22.36
2016-11-26T02:26:54.502Z,22.41
2016-11-26T02:27:22.277Z,22.41
2016-11-26T02:27:50.051Z,22.41
2016-11-26T02:28:17.836Z,22.48
2016-11-26T02:28:45.612Z,22.48
2016-11-26T02:29:13.377Z,22.5
2016-11-26T02:29:41.171Z,22.59
2016-11-26T02:30:08.923Z,22.51
2016-11-26T02:30:36.704Z,22.51
2016-11-26T02:31:04.448Z,22.5
2016-11-26T02:31:32.221Z,22.54
2016-11-26T02:31:59.964Z,22.55
2016-11-26T02:32:27.730Z,22.54
2016-11-26T02:32:55.642Z,22.48
2016-11-26T02:33:23.382Z,22.54
2016-11-26T02:33:51.182Z,22.5
2016-11-26T02:34:18.951Z,22.39
2016-11-26T02:34:46.713Z,22.5
2016-11-26T02:35:14.470Z,22.5
2016-11-26T02:35:42.319Z,22.53
2016-11-26T02:36:10.129Z,22.41
2016-11-26T02:36:37.986Z,22.5
2016-11-26T02:37:05.959Z,22.39
2016-11-26T02:37:33.694Z,22.41
2016-11-26T02:38:01.454Z,22.43
2016-11-26T02:38:29.333Z,22.39
2016-11-26T02:38:57.167Z,22.43
2016-11-26T02:39:24.911Z,22.43
2016-11-26T02:39:52.744Z,22.44
2016-11-26T02:40:20.642Z,22.47
2016-11-26T02:40:48.384Z,22.48
2016-11-26T02:41:16.181Z,22.51
2016-11-26T02:41:43.946Z,22.5
2016-11-26T02:42:11.762Z,22.53
2016-11-26T02:42:39.570Z,22.51
2016-11-26T02:43:07.338Z,22.54
2016-11-26T02:43:35.113Z,22.53
2016-11-26T02:44:02.890Z,22.53
2016-11-26T02:44:30.670Z,22.57
2016-11-26T02:44:58.495Z,22.51
2016-11-26T02:45:26.259Z,22.51
2016-11-26T02:45:54.081Z,22.53
2016-11-26T02:46:21.845Z,22.55
2016-11-26T02:46:49.646Z,22.55
2016-11-26T02:47:17.482Z,22.6
2016-11-26T02:47:45.324Z,22.53
2016-11-26T02:48:13.080Z,22.54
2016-11-26T02:48:40.834Z,22.54
2016-11-26T02:49:08.616Z,22.48
2016-11-26T02:49:36.409Z,22.54
2016-11-26T02:50:04.160Z,22.38
2016-11-26T02:50:31.913Z,22.5
2016-11-26T02:50:59.770Z,22.47
2016-11-26T02:51:27.577Z,22.5
2016-11-26T02:51:55.466Z,22.48
2016-11-26T02:52:23.283Z,22.48
2016-11-26T02:52:51.110Z,22.47
2016-11-26T02:53:18.887Z,22.45
2016-11-26T02:53:46.723Z,22.38
2016-11-26T02:54:14.487Z,22.45
2016-11-26T02:54:42.256Z,22.45
2016-11-26T02:55:10.099Z,22.45
2016-11-26T02:55:37.838Z,22.48
2016-11-26T02:56:05.597Z,22.55
2016-11-26T02:56:33.447Z,22.54
2016-11-26T02:57:01.178Z,22.41
2016-11-26T02:57:29.096Z,22.43
2016-11-26T02:57:56.846Z,22.38
2016-11-26T02:58:24.682Z,22.43
2016-11-26T02:58:52.476Z,22.33
2016-11-26T02:59:20.343Z,22.43
2016-11-26T02:59:48.266Z,22.39
2016-11-26T03:00:16.011Z,22.39
2016-11-26T03:00:43.775Z,22.45
2016-11-26T03:01:11.614Z,22.41
2016-11-26T03:01:39.393Z,22.45
2016-11-26T03:02:07.140Z,22.38
2016-11-26T03:02:34.923Z,22.36
2016-11-26T03:03:02.681Z,22.43
2016-11-26T03:03:30.495Z,22.41
2016-11-26T03:03:58.264Z,22.38
2016-11-26T03:04:26.033Z,22.33
2016-11-26T03:04:53.912Z,22.39
2016-11-26T03:05:21.654Z,22.36
2016-11-26T03:05:49.431Z,22.43
2016-11-26T03:06:17.284Z,22.39
2016-11-26T03:06:45.036Z,22.33
2016-11-26T03:07:12.811Z,22.38
2016-11-26T03:07:40.647Z,22.29
2016-11-26T03:08:08.527Z,22.35
2016-11-26T03:08:36.474Z,22.39
2016-11-26T03:09:04.391Z,22.39
2016-11-26T03:09:32.236Z,22.39
2016-11-26T03:10:00.027Z,22.29
2016-11-26T03:10:27.937Z,22.29
2016-11-26T03:10:55.787Z,22.32
2016-11-26T03:11:23.665Z,22.2
2016-11-26T03:11:51.457Z,22.2
2016-11-26T03:12:19.306Z,22.22
2016-11-26T03:12:47.164Z,22.2
2016-11-26T03:13:15.026Z,22.23
2016-11-26T03:13:42.888Z,22.26
2016-11-26T03:14:10.721Z,22.18
2016-11-26T03:14:38.580Z,22.23
2016-11-26T03:15:06.464Z,22.26
2016-11-26T03:15:34.250Z,22.22
2016-11-26T03:16:02.003Z,22.23
2016-11-26T03:16:29.782Z,22.17
2016-11-26T03:16:57.539Z,22.2
2016-11-26T03:17:25.297Z,22.13
2016-11-26T03:17:53.216Z,22.18
2016-11-26T03:18:20.989Z,22.28
2016-11-26T03:18:48.848Z,22.25
2016-11-26T03:19:16.605Z,22.26
2016-11-26T03:19:44.435Z,22.26
2016-11-26T03:20:12.212Z,22.32
2016-11-26T03:20:39.984Z,22.23
2016-11-26T03:21:07.717Z,22.23
2016-11-26T03:21:35.462Z,22.26
2016-11-26T03:22:03.188Z,22.25
2016-11-26T03:22:31.016Z,22.25
2016-11-26T03:22:58.831Z,22.23
2016-11-26T03:23:26.646Z,22.28
2016-11-26T03:23:54.508Z,22.32
2016-11-26T03:24:22.281Z,22.23
2016-11-26T03:24:50.098Z,22.28
2016-11-26T03:25:17.962Z,22.26
2016-11-26T03:25:45.826Z,22.23
2016-11-26T03:26:13.619Z,22.28
2016-11-26T03:26:41.425Z,22.25
2016-11-26T03:27:09.254Z,22.28
2016-11-26T03:27:37.012Z,22.26
2016-11-26T03:28:04.777Z,22.26
2016-11-26T03:28:32.622Z,22.26
2016-11-26T03:29:00.368Z,22.23
2016-11-26T03:29:28.206Z,22.18
2016-11-26T03:29:56.018Z,22.18
2016-11-26T03:30:23.796Z,22.18
2016-11-26T03:30:51.656Z,22.23
2016-11-26T03:31:19.464Z,22.2
2016-11-26T03:31:47.283Z,22.29
2016-11-26T03:32:15.057Z,22.28
2016-11-26T03:32:42.827Z,22.26
2016-11-26T03:33:10.710Z,22.25
2016-11-26T03:33:38.492Z,22.28
2016-11-26T03:34:06.373Z,22.23
2016-11-26T03:34:34.086Z,22.28
2016-11-26T03:35:01.840Z,22.07
2016-11-26T03:35:29.787Z,22.08
2016-11-26T03:35:57.525Z,22.1
2016-11-26T03:36:25.319Z,22.13
2016-11-26T03:36:53.102Z,22.07
2016-11-26T03:37:20.919Z,22.11
2016-11-26T03:37:48.696Z,22.2
2016-11-26T03:38:16.696Z,22.18
2016-11-26T03:38:44.492Z,22.22
2016-11-26T03:39:12.253Z,22.17
2016-11-26T03:39:40.169Z,22.11
2016-11-26T03:40:07.993Z,22.11
2016-11-26T03:40:35.791Z,22.11
2016-11-26T03:41:03.671Z,22.14
2016-11-26T03:41:31.443Z,22.11
2016-11-26T03:41:59.309Z,22.11
2016-11-26T03:42:27.179Z,22.11
2016-11-26T03:42:54.908Z,22.08
2016-11-26T03:43:22.777Z,22.13
2016-11-26T03:43:50.611Z,22.08
2016-11-26T03:44:18.388Z,22.1
2016-11-26T03:44:46.250Z,22.1
2016-11-26T03:45:14.003Z,22
2016-11-26T03:45:41.924Z,22.07
2016-11-26T03:46:09.763Z,22.1
2016-11-26T03:46:37.541Z,22.1
2016-11-26T03:47:05.320Z,22.15
2016-11-26T03:47:33.118Z,22.04
2016-11-26T03:48:00.850Z,22.04
2016-11-26T03:48:28.620Z,22.11
2016-11-26T03:48:56.463Z,22.06
2016-11-26T03:49:24.434Z,22.02
2016-11-26T03:49:52.373Z,22.04
2016-11-26T03:50:20.094Z,22
2016-11-26T03:50:48.035Z,22.06
2016-11-26T03:51:15.932Z,22.07
2016-11-26T03:51:43.745Z,22.11
2016-11-26T03:52:11.500Z,22.13
2016-11-26T03:52:39.267Z,22.17
2016-11-26T03:53:07.004Z,22.11
2016-11-26T03:53:34.829Z,22.17
2016-11-26T03:54:02.639Z,22.11
2016-11-26T03:54:30.524Z,22.2
2016-11-26T03:54:58.456Z,22.17
2016-11-26T03:55:26.203Z,22.17
2016-11-26T03:55:54.063Z,22.18
2016-11-26T03:56:21.848Z,22.22
2016-11-26T03:56:49.599Z,22.11
2016-11-26T03:57:17.372Z,22.04
2016-11-26T03:57:45.138Z,22.15
2016-11-26T03:58:12.933Z,22.14
2016-11-26T03:58:40.733Z,22.1
2016-11-26T03:59:08.490Z,22.1
2016-11-26T03:59:36.287Z,22.07
2016-11-26T04:00:04.085Z,22.07
2016-11-26T04:00:31.865Z,22.11
2016-11-26T04:00:59.848Z,21.99
2016-11-26T04:01:27.585Z,22.11
2016-11-26T04:01:55.360Z,22.1
2016-11-26T04:02:23.090Z,22.07
2016-11-26T04:02:50.899Z,22.13
2016-11-26T04:03:18.807Z,22
2016-11-26T04:03:46.540Z,22.04
2016-11-26T04:04:14.322Z,22.02
2016-11-26T04:04:42.187Z,22.02
2016-11-26T04:05:09.973Z,22.06
2016-11-26T04:05:37.835Z,21.99
2016-11-26T04:06:05.653Z,21.96
2016-11-26T04:06:33.501Z,22
2016-11-26T04:07:01.268Z,22.06
2016-11-26T04:07:29.283Z,22.06
2016-11-26T04:07:57.183Z,22.11
2016-11-26T04:08:24.964Z,22.1
2016-11-26T04:08:52.788Z,22.11
2016-11-26T04:09:20.604Z,22.11
2016-11-26T04:09:48.374Z,22.11
2016-11-26T04:10:16.113Z,22.11
2016-11-26T04:10:43.937Z,22.02
2016-11-26T04:11:11.688Z,22.08
2016-11-26T04:11:39.499Z,22.1
2016-11-26T04:12:07.301Z,22.08
2016-11-26T04:12:35.132Z,22.1
2016-11-26T04:13:02.872Z,22.15
2016-11-26T04:13:30.629Z,22.08
2016-11-26T04:13:58.513Z,22.14
2016-11-26T04:14:26.290Z,22.15
2016-11-26T04:14:54.024Z,22.08
2016-11-26T04:15:21.838Z,22.07
2016-11-26T04:15:49.635Z,22.07
2016-11-26T04:16:17.642Z,22.18
2016-11-26T04:16:45.425Z,22.18
2016-11-26T04:17:13.184Z,22.1
2016-11-26T04:17:40.928Z,22.07
2016-11-26T04:18:08.838Z,22.08
2016-11-26T04:18:36.597Z,22.15
2016-11-26T04:19:04.388Z,22.22
2016-11-26T04:19:32.182Z,22.22
2016-11-26T04:19:59.979Z,22.22
2016-11-26T04:20:27.786Z,22.22
2016-11-26T04:20:55.579Z,22.26
2016-11-26T04:21:23.406Z,22.22
2016-11-26T04:21:51.198Z,22.22
2016-11-26T04:22:18.968Z,22.18
2016-11-26T04:22:46.859Z,22.11
2016-11-26T04:23:14.675Z,22.17
2016-11-26T04:23:42.568Z,22.11
2016-11-26T04:24:10.457Z,22.13
2016-11-26T04:24:38.251Z,22.13
2016-11-26T04:25:06.027Z,22.14
2016-11-26T04:25:33.818Z,22.11
2016-11-26T04:26:01.825Z,22.13
2016-11-26T04:26:29.681Z,22.1
2016-11-26T04:26:57.443Z,22.11
2016-11-26T04:27:25.237Z,22.22
2016-11-26T04:27:53.036Z,22.22
2016-11-26T04:28:20.930Z,22.22
2016-11-26T04:28:48.739Z,22.26
2016-11-26T04:29:16.507Z,22.15
2016-11-26T04:29:44.385Z,22.18
2016-11-26T04:30:12.213Z,22.17
2016-11-26T04:30:40.125Z,22.2
2016-11-26T04:31:07.904Z,22.23
2016-11-26T04:31:35.771Z,22.18
2016-11-26T04:32:03.562Z,22.26
2016-11-26T04:32:31.382Z,22.22
2016-11-26T04:32:59.175Z,22.23
2016-11-26T04:33:26.959Z,22.23
2016-11-26T04:33:54.857Z,22.22
2016-11-26T04:34:22.695Z,22.18
2016-11-26T04:34:50.508Z,22.17
2016-11-26T04:35:18.401Z,22.25
2016-11-26T04:35:46.169Z,22.28
2016-11-26T04:36:13.955Z,22.2
2016-11-26T04:36:41.751Z,22.15
2016-11-26T04:37:09.523Z,22.18
2016-11-26T04:37:37.337Z,22.2
2016-11-26T04:38:05.213Z,22.25
2016-11-26T04:38:32.955Z,22.14
2016-11-26T04:39:00.692Z,22.2
2016-11-26T04:39:28.545Z,22.23
2016-11-26T04:39:56.320Z,22.22
2016-11-26T04:40:24.151Z,22.18
2016-11-26T04:40:51.987Z,22.25
2016-11-26T04:41:19.846Z,22.18
2016-11-26T04:41:47.630Z,22.2
2016-11-26T04:42:15.392Z,22.17
2016-11-26T04:42:43.229Z,22.08
2016-11-26T04:43:10.984Z,22.15
2016-11-26T04:43:38.772Z,22.2
2016-11-26T04:44:06.509Z,22.17
2016-11-26T04:44:34.288Z,22.22
2016-11-26T04:45:02.081Z,22.26
2016-11-26T04:45:29.850Z,22.23
2016-11-26T04:45:57.615Z,22.22
2016-11-26T04:46:25.444Z,22.23
2016-11-26T04:46:53.196Z,22.22
2016-11-26T04:47:20.990Z,22.17
2016-11-26T04:47:48.744Z,22.17
2016-11-26T04:48:16.554Z,22.25
2016-11-26T04:48:44.342Z,22.18
2016-11-26T04:49:12.204Z,22.26
2016-11-26T04:49:39.996Z,22.25
2016-11-26T04:50:07.930Z,22.2
2016-11-26T04:50:35.791Z,22.18
2016-11-26T04:51:03.578Z,22.23
2016-11-26T04:51:31.343Z,22.26
2016-11-26T04:51:59.266Z,22.23
2016-11-26T04:52:27.112Z,22.28
2016-11-26T04:52:54.976Z,22.22
2016-11-26T04:53:22.762Z,22.22
2016-11-26T04:53:50.546Z,22.15
2016-11-26T04:54:18.303Z,22.22
2016-11-26T04:54:46.229Z,22.23
2016-11-26T04:55:14.022Z,22.23
2016-11-26T04:55:41.822Z,22.22
2016-11-26T04:56:09.691Z,22.23
2016-11-26T04:56:37.478Z,22.28
2016-11-26T04:57:05.235Z,22.28
2016-11-26T04:57:33.012Z,22.18
2016-11-26T04:58:00.775Z,22.18
2016-11-26T04:58:28.632Z,22.22
2016-11-26T04:58:56.428Z,22.22
2016-11-26T04:59:24.184Z,22.17
2016-11-26T04:59:52.024Z,22.17
2016-11-26T05:00:19.780Z,22.18
2016-11-26T05:00:47.523Z,22.18
2016-11-26T05:01:15.392Z,22.2
2016-11-26T05:01:43.261Z,22.2
2016-11-26T05:02:11.109Z,22.18
2016-11-26T05:02:38.877Z,22.13
2016-11-26T05:03:06.640Z,22.25
2016-11-26T05:03:34.416Z,22.18
2016-11-26T05:04:02.204Z,22.22
2016-11-26T05:04:30.015Z,22.25
2016-11-26T05:04:57.762Z,22.23
2016-11-26T05:05:25.600Z,22.22
2016-11-26T05:05:53.355Z,22.17
2016-11-26T05:06:21.116Z,22.17
2016-11-26T05:06:48.969Z,22.1
2016-11-26T05:07:16.753Z,22.2
2016-11-26T05:07:44.568Z,22.17
2016-11-26T05:08:12.434Z,22.18
2016-11-26T05:08:40.277Z,22.14
2016-11-26T05:09:08.123Z,22.14
2016-11-26T05:09:35.949Z,22.1
2016-11-26T05:10:03.769Z,22.11
2016-11-26T05:10:31.526Z,22.11
2016-11-26T05:10:59.352Z,22.06
2016-11-26T05:11:27.128Z,22.11
2016-11-26T05:11:54.923Z,22.08
2016-11-26T05:12:22.764Z,22.04
2016-11-26T05:12:50.557Z,22.02
2016-11-26T05:13:18.417Z,22.04
2016-11-26T05:13:46.218Z,22.06
2016-11-26T05:14:14.157Z,21.98
2016-11-26T05:14:41.918Z,22
2016-11-26T05:15:09.716Z,21.98
2016-11-26T05:15:37.564Z,21.98
2016-11-26T05:16:05.410Z,22
2016-11-26T05:16:33.217Z,21.98
2016-11-26T05:17:00.987Z,22
2016-11-26T05:17:28.785Z,22
2016-11-26T05:17:56.656Z,22.02
2016-11-26T05:18:24.414Z,21.99
2016-11-26T05:18:52.320Z,22
2016-11-26T05:19:20.188Z,21.99
2016-11-26T05:19:48.087Z,21.95
2016-11-26T05:20:15.913Z,21.99
2016-11-26T05:20:43.774Z,21.99
2016-11-26T05:21:11.585Z,21.89
2016-11-26T05:21:39.346Z,21.93
2016-11-26T05:22:07.128Z,21.96
2016-11-26T05:22:34.981Z,21.93
2016-11-26T05:23:02.792Z,22.02
2016-11-26T05:23:30.568Z,21.98
2016-11-26T05:23:58.458Z,22.02
2016-11-26T05:24:26.195Z,21.96
2016-11-26T05:24:53.951Z,21.98
2016-11-26T05:25:21.687Z,21.99
2016-11-26T05:25:49.436Z,21.95
2016-11-26T05:26:17.211Z,21.96
2016-11-26T05:26:44.962Z,21.98
2016-11-26T05:27:12.706Z,22.02
2016-11-26T05:27:40.484Z,22.08
2016-11-26T05:28:08.389Z,22
2016-11-26T05:28:36.152Z,22.02
2016-11-26T05:29:03.895Z,21.98
2016-11-26T05:29:31.623Z,22.08
2016-11-26T05:29:59.434Z,22.06
2016-11-26T05:30:27.265Z,22.02
2016-11-26T05:30:55.087Z,22.02
2016-11-26T05:31:22.869Z,21.95
2016-11-26T05:31:50.707Z,21.91
2016-11-26T05:32:18.576Z,21.93
2016-11-26T05:32:46.426Z,22.04
2016-11-26T05:33:14.263Z,21.93
2016-11-26T05:33:42.104Z,21.93
2016-11-26T05:34:09.968Z,21.93
2016-11-26T05:34:37.711Z,21.98
2016-11-26T05:35:05.511Z,21.95
2016-11-26T05:35:33.390Z,21.93
2016-11-26T05:36:01.162Z,21.89
2016-11-26T05:36:29.097Z,21.92
2016-11-26T05:36:56.841Z,21.95
2016-11-26T05:37:24.678Z,21.98
2016-11-26T05:37:52.507Z,21.92
2016-11-26T05:38:20.432Z,21.96
2016-11-26T05:38:48.237Z,21.93
2016-11-26T05:39:16.098Z,21.93
2016-11-26T05:39:43.911Z,21.99
2016-11-26T05:40:11.801Z,22
2016-11-26T05:40:39.586Z,21.99
2016-11-26T05:41:07.622Z,22.04
2016-11-26T05:41:35.453Z,22
2016-11-26T05:42:03.312Z,22.02
2016-11-26T05:42:31.079Z,21.92
2016-11-26T05:42:58.845Z,21.93
2016-11-26T05:43:26.657Z,21.95
2016-11-26T05:43:54.394Z,21.96
2016-11-26T05:44:22.245Z,22
2016-11-26T05:44:50.052Z,21.98
2016-11-26T05:45:17.834Z,21.98
2016-11-26T05:45:45.620Z,22
2016-11-26T05:46:13.460Z,22.02
2016-11-26T05:46:41.267Z,21.91
2016-11-26T05:47:09.182Z,21.88
2016-11-26T05:47:37.011Z,21.89
2016-11-26T05:48:04.889Z,21.83
2016-11-26T05:48:32.796Z,21.98
2016-11-26T05:49:00.520Z,21.91
2016-11-26T05:49:28.356Z,21.96
2016-11-26T05:49:56.078Z,21.96
2016-11-26T05:50:23.865Z,21.96
2016-11-26T05:50:51.743Z,21.92
2016-11-26T05:51:19.505Z,21.96
2016-11-26T05:51:47.270Z,21.99
2016-11-26T05:52:15.069Z,21.99
2016-11-26T05:52:42.879Z,21.99
2016-11-26T05:53:10.713Z,21.93
2016-11-26T05:53:38.518Z,21.99
2016-11-26T05:54:06.310Z,22
2016-11-26T05:54:34.133Z,22
2016-11-26T05:55:01.967Z,22.06
2016-11-26T05:55:29.706Z,21.99
2016-11-26T05:55:57.598Z,22
2016-11-26T05:56:25.419Z,22.02
2016-11-26T05:56:53.194Z,21.96
2016-11-26T05:57:20.982Z,22
2016-11-26T05:57:48.842Z,22
2016-11-26T05:58:16.682Z,22.1
2016-11-26T05:58:44.586Z,21.95
2016-11-26T05:59:12.319Z,21.99
2016-11-26T05:59:40.088Z,21.98
2016-11-26T06:00:07.841Z,22
2016-11-26T06:00:35.682Z,21.77
2016-11-26T06:01:03.470Z,21.83
2016-11-26T06:01:31.234Z,21.89